Pleasant Hill, New Mexico
Current Conditions -  °F | °C
As of 9:35 AM on Monday 24 Nov 2014 (Local Time) from KCVN Reporting Station
Clear Clear  
Wind Chill: 35°   Ceiling: Unl
Heat Index: 43°   Visibility: 10mi
Dew Point: 14°   Wind: 15mph
Humidity: 31%   Direction: 300°WNW
Pressure: 30.07"   Gusts: 20mph
Location:  34.3983°N, 103.093°W
Report Text: KCVN 241635Z 30013G17KT 10SM CLR 06/M10 A3007 RMK AO1
Loading
Personal Weather Stations






























Interactive Weather Map New forecast layout! Learn more

10-Day Weather Forecast

Advertisements
Track Severe Weather on mobile